Time;durP1;ratioP1;P1;durP2;ratioP2;P2;SDS_P1;SDS_P2;PMS_P1;PMS_P2;Temp;Humidity;BMP_temperature;BMP_pressure;BME280_temperature;BME280_humidity;BME280_pressure;Samples;Min_cycle;Max_cycle;Signal;HPM_P1;HPM_P2
2022/10/15 00:01:18;;;;;;;1.37;1.20;;;17.60;49.00;;;;;;10431320;28;20228;-73
2022/10/15 00:06:22;;;;;;;1.73;1.60;;;17.50;49.40;;;;;;10423810;28;20228;-72
2022/10/15 00:11:27;;;;;;;1.60;1.50;;;17.50;49.30;;;;;;10431851;28;20248;-72
2022/10/15 00:16:33;;;;;;;1.60;1.50;;;17.50;49.70;;;;;;10425310;28;21050;-73
2022/10/15 00:21:36;;;;;;;1.90;1.60;;;17.50;50.00;;;;;;10427622;28;20239;-72
2022/10/15 00:26:40;;;;;;;3.53;1.23;;;17.50;49.50;;;;;;10422118;28;20234;-72
2022/10/15 00:31:44;;;;;;;1.73;1.50;;;17.40;49.40;;;;;;10422642;28;20225;-72
2022/10/15 00:36:50;;;;;;;1.70;1.50;;;17.50;50.00;;;;;;10425837;28;20241;-74
2022/10/15 00:41:53;;;;;;;1.53;1.43;;;17.50;50.20;;;;;;10433356;28;20232;-71
2022/10/15 00:47:03;;;;;;;1.47;1.37;;;17.50;49.50;;;;;;10432743;28;20233;-72
2022/10/15 00:52:10;;;;;;;1.67;1.30;;;17.50;50.50;;;;;;10422425;28;20351;-72
2022/10/15 00:57:14;;;;;;;1.30;1.20;;;17.50;50.10;;;;;;10408455;28;20221;-72
2022/10/15 01:02:20;;;;;;;2.17;1.27;;;17.50;49.80;;;;;;10410238;28;20225;-72
2022/10/15 01:07:24;;;;;;;1.60;1.20;;;17.40;50.40;;;;;;10411949;28;20581;-72
2022/10/15 01:12:39;;;;;;;1.03;1.03;;;17.40;49.90;;;;;;10408815;28;20590;-72
2022/10/15 01:17:47;;;;;;;1.63;1.37;;;17.40;51.00;;;;;;10413125;28;20228;-72
2022/10/15 01:23:05;;;;;;;1.37;1.27;;;17.40;50.70;;;;;;10409485;28;20232;-72
2022/10/15 01:28:24;;;;;;;1.20;1.10;;;17.50;51.10;;;;;;10407170;28;20600;-72
2022/10/15 01:33:36;;;;;;;1.40;1.30;;;17.50;51.00;;;;;;10413809;28;20635;-72
2022/10/15 01:38:49;;;;;;;1.30;1.20;;;17.50;50.90;;;;;;10406063;28;20778;-72
2022/10/15 01:44:00;;;;;;;1.33;1.20;;;17.50;50.80;;;;;;10407473;28;20229;-72
2022/10/15 01:49:06;;;;;;;0.90;0.90;;;17.50;50.50;;;;;;10408995;28;20232;-72
2022/10/15 01:54:13;;;;;;;1.43;1.17;;;17.50;50.40;;;;;;10406221;28;20220;-72
2022/10/15 01:59:21;;;;;;;1.00;1.00;;;17.50;50.40;;;;;;10411358;28;20229;-72
2022/10/15 02:04:28;;;;;;;1.10;1.03;;;17.50;50.90;;;;;;10407162;28;20225;-73
2022/10/15 02:09:41;;;;;;;1.03;1.00;;;17.50;50.80;;;;;;10409563;28;20233;-72
2022/10/15 02:14:52;;;;;;;1.20;1.00;;;17.50;51.10;;;;;;10413056;28;20235;-72
2022/10/15 02:20:01;;;;;;;1.07;1.00;;;17.50;51.00;;;;;;10405590;28;20659;-72
2022/10/15 02:25:10;;;;;;;2.13;1.00;;;17.50;51.00;;;;;;10402449;28;20312;-72
2022/10/15 02:30:14;;;;;;;0.80;0.80;;;17.40;50.90;;;;;;10404886;28;20950;-72
2022/10/15 02:35:21;;;;;;;1.23;0.90;;;17.50;50.50;;;;;;10409105;28;20229;-72
2022/10/15 02:40:29;;;;;;;0.93;0.93;;;17.40;51.10;;;;;;10410372;28;20236;-72
2022/10/15 02:45:32;;;;;;;1.40;0.90;;;17.40;51.20;;;;;;10414019;28;20225;-73
2022/10/15 02:50:37;;;;;;;1.80;1.00;;;17.40;50.70;;;;;;10415996;28;21110;-72
2022/10/15 02:55:40;;;;;;;0.90;0.90;;;17.30;51.30;;;;;;10413104;28;20715;-72
2022/10/15 03:00:43;;;;;;;0.97;0.80;;;17.30;51.70;;;;;;10414622;28;20328;-72
2022/10/15 03:05:48;;;;;;;0.80;0.80;;;17.20;51.20;;;;;;10416305;28;21282;-72
2022/10/15 03:10:51;;;;;;;0.90;0.90;;;17.20;51.80;;;;;;10413326;28;20596;-72
2022/10/15 03:15:55;;;;;;;1.20;1.10;;;17.20;51.30;;;;;;10413156;28;20232;-72
2022/10/15 03:21:00;;;;;;;1.73;1.10;;;17.20;51.40;;;;;;10413944;28;21008;-72
2022/10/15 03:26:03;;;;;;;1.00;1.00;;;17.20;52.20;;;;;;10415294;28;20222;-72
2022/10/15 03:31:06;;;;;;;1.67;1.20;;;17.20;51.70;;;;;;10415022;28;20230;-72
2022/10/15 03:36:11;;;;;;;1.00;1.00;;;17.20;51.70;;;;;;10412922;28;20229;-73
2022/10/15 03:41:14;;;;;;;1.63;1.10;;;17.20;52.20;;;;;;10412096;28;20232;-73
2022/10/15 03:46:17;;;;;;;2.87;1.00;;;17.30;51.80;;;;;;10410874;28;20230;-72
2022/10/15 03:51:22;;;;;;;0.90;0.90;;;17.20;51.70;;;;;;10417931;28;20287;-73
2022/10/15 03:56:29;;;;;;;0.90;0.90;;;17.30;52.30;;;;;;10413540;28;20238;-72
2022/10/15 04:01:33;;;;;;;0.90;0.90;;;17.30;52.00;;;;;;10414737;28;20240;-72
2022/10/15 04:06:37;;;;;;;0.80;0.80;;;17.30;52.00;;;;;;10413919;28;20232;-73
2022/10/15 04:11:41;;;;;;;1.00;0.90;;;17.30;52.60;;;;;;10409817;28;20229;-73
2022/10/15 04:16:44;;;;;;;0.80;0.80;;;17.30;52.30;;;;;;10409542;28;20611;-72
2022/10/15 04:21:48;;;;;;;1.93;0.90;;;17.30;52.30;;;;;;10408561;28;20231;-73
2022/10/15 04:26:52;;;;;;;1.53;0.80;;;17.30;52.80;;;;;;10411686;28;20245;-73
2022/10/15 04:31:56;;;;;;;0.80;0.80;;;17.40;52.60;;;;;;10409937;28;20239;-72
2022/10/15 04:37:00;;;;;;;0.60;0.60;;;17.30;52.60;;;;;;10413251;28;20244;-72
2022/10/15 04:42:04;;;;;;;0.97;0.80;;;17.40;53.70;;;;;;10408446;28;20217;-72
2022/10/15 04:47:07;;;;;;;1.20;1.10;;;17.40;53.30;;;;;;10412818;28;20229;-72
2022/10/15 04:52:12;;;;;;;1.50;1.40;;;17.40;53.20;;;;;;10408729;28;20221;-72
2022/10/15 04:57:15;;;;;;;1.60;1.50;;;17.50;54.20;;;;;;10409560;28;20312;-72
2022/10/15 05:02:18;;;;;;;2.53;2.33;;;17.50;53.80;;;;;;10409933;28;20225;-72
2022/10/15 05:07:23;;;;;;;1.00;1.00;;;17.50;53.90;;;;;;10408318;28;20239;-72
2022/10/15 05:12:27;;;;;;;1.10;1.10;;;17.60;54.80;;;;;;10414248;28;20231;-72
2022/10/15 05:17:30;;;;;;;0.80;0.80;;;17.60;54.20;;;;;;10412130;28;20608;-72
2022/10/15 05:22:34;;;;;;;0.80;0.70;;;17.70;54.40;;;;;;10408315;28;20221;-72
2022/10/15 05:27:38;;;;;;;0.60;0.60;;;17.70;55.00;;;;;;10409605;28;20220;-72
2022/10/15 05:32:41;;;;;;;0.70;0.70;;;17.70;54.50;;;;;;10407680;28;20667;-72
2022/10/15 05:37:46;;;;;;;0.80;0.80;;;17.70;54.50;;;;;;10407364;28;20237;-73
2022/10/15 05:42:52;;;;;;;0.80;0.80;;;17.80;55.20;;;;;;10410630;28;20711;-72
2022/10/15 05:48:00;;;;;;;1.13;1.10;;;17.80;55.40;;;;;;10409803;28;20577;-72
2022/10/15 05:53:04;;;;;;;1.07;1.07;;;17.80;54.50;;;;;;10413012;28;20714;-72
2022/10/15 05:58:07;;;;;;;0.80;0.80;;;17.90;55.50;;;;;;10410335;28;20294;-72
2022/10/15 06:03:14;;;;;;;0.87;0.87;;;17.90;54.80;;;;;;10409455;28;20237;-72
2022/10/15 06:08:19;;;;;;;0.90;0.87;;;17.90;55.50;;;;;;10408222;28;20232;-72
2022/10/15 06:13:22;;;;;;;1.43;1.33;;;18.00;55.60;;;;;;10411262;28;20240;-72
2022/10/15 06:18:25;;;;;;;1.10;1.10;;;18.00;54.90;;;;;;10415382;28;20262;-72
2022/10/15 06:23:30;;;;;;;2.30;1.13;;;18.10;54.90;;;;;;10412619;28;20228;-72
2022/10/15 06:28:33;;;;;;;2.37;1.07;;;18.10;55.40;;;;;;10414231;28;20237;-72
2022/10/15 06:33:37;;;;;;;0.60;0.60;;;18.10;55.00;;;;;;10417946;28;20231;-72
2022/10/15 06:38:42;;;;;;;0.70;0.70;;;18.10;54.80;;;;;;10412270;28;20312;-72
2022/10/15 06:43:49;;;;;;;0.70;0.70;;;18.20;55.60;;;;;;10412474;28;20838;-72
2022/10/15 06:48:54;;;;;;;0.60;0.60;;;18.20;55.80;;;;;;10416586;28;20316;-72
2022/10/15 06:53:59;;;;;;;0.60;0.60;;;18.30;55.00;;;;;;10414294;28;20245;-72
2022/10/15 06:59:02;;;;;;;1.10;0.60;;;18.30;55.60;;;;;;10410024;28;20923;-72
2022/10/15 07:04:05;;;;;;;0.70;0.70;;;18.30;55.00;;;;;;10417604;28;20213;-72
2022/10/15 07:09:09;;;;;;;0.60;0.60;;;18.40;55.10;;;;;;10413415;28;20709;-72
2022/10/15 07:14:13;;;;;;;1.30;0.90;;;18.40;55.50;;;;;;10414441;28;20245;-72
2022/10/15 07:19:16;;;;;;;0.87;0.70;;;18.40;55.10;;;;;;10412168;28;20229;-72
2022/10/15 07:24:20;;;;;;;0.90;0.90;;;18.50;55.20;;;;;;10415739;28;20751;-72
2022/10/15 07:29:23;;;;;;;0.73;0.73;;;18.50;55.70;;;;;;10416422;28;20232;-72
2022/10/15 07:34:27;;;;;;;1.50;1.40;;;18.50;55.30;;;;;;10416047;28;20257;-72
2022/10/15 07:39:31;;;;;;;1.13;1.03;;;18.60;56.20;;;;;;10409101;28;20245;-72
2022/10/15 07:44:38;;;;;;;0.80;0.80;;;18.60;55.80;;;;;;10417021;28;20221;-72
2022/10/15 07:49:41;;;;;;;0.80;0.80;;;18.60;55.20;;;;;;10416663;28;20228;-72
2022/10/15 07:54:46;;;;;;;0.67;0.67;;;18.60;55.30;;;;;;10410552;28;20232;-73
2022/10/15 07:59:49;;;;;;;0.90;0.90;;;18.70;55.80;;;;;;10415746;28;20629;-72
2022/10/15 08:04:52;;;;;;;0.80;0.80;;;18.70;55.30;;;;;;10415614;28;20275;-72
2022/10/15 08:09:56;;;;;;;0.80;0.80;;;18.70;55.40;;;;;;10414735;28;20264;-71
2022/10/15 08:15:00;;;;;;;1.00;0.90;;;18.80;55.50;;;;;;10421618;28;20225;-71
2022/10/15 08:20:04;;;;;;;1.30;1.07;;;18.80;55.10;;;;;;10412334;28;20643;-71
2022/10/15 08:25:09;;;;;;;1.80;1.70;;;18.80;55.30;;;;;;10413282;28;20260;-71
2022/10/15 08:30:12;;;;;;;1.80;1.70;;;18.90;55.90;;;;;;10418364;28;20639;-71
2022/10/15 08:35:16;;;;;;;1.10;1.10;;;18.90;55.40;;;;;;10417158;28;20217;-71
2022/10/15 08:40:22;;;;;;;1.60;1.50;;;19.00;55.50;;;;;;10417779;28;20221;-71
2022/10/15 08:45:30;;;;;;;1.97;1.77;;;19.00;55.90;;;;;;10417762;28;20250;-71
2022/10/15 08:50:40;;;;;;;1.50;1.40;;;19.00;55.70;;;;;;10420804;28;20280;-71
2022/10/15 08:55:49;;;;;;;1.10;1.10;;;19.00;55.90;;;;;;10415610;28;20275;-71
2022/10/15 09:00:54;;;;;;;0.90;0.90;;;19.10;55.50;;;;;;10420240;28;20759;-71
2022/10/15 09:06:05;;;;;;;0.80;0.80;;;19.10;55.10;;;;;;10413639;28;20650;-72
2022/10/15 09:11:16;;;;;;;0.80;0.70;;;19.10;55.40;;;;;;10419682;28;20232;-72
2022/10/15 09:16:22;;;;;;;0.80;0.80;;;19.20;55.60;;;;;;10417020;28;20226;-72
2022/10/15 09:21:26;;;;;;;1.90;0.90;;;19.20;55.30;;;;;;10418846;28;20225;-71
2022/10/15 09:26:35;;;;;;;1.00;1.00;;;19.30;55.20;;;;;;10412955;28;20233;-72
2022/10/15 09:31:46;;;;;;;1.13;0.80;;;19.30;55.20;;;;;;10402193;28;20229;-71
2022/10/15 09:36:52;;;;;;;2.00;0.60;;;19.40;55.40;;;;;;10407311;28;20236;-71
2022/10/15 09:42:05;;;;;;;0.67;0.67;;;19.40;55.50;;;;;;10414579;28;20239;-71
2022/10/15 09:47:23;;;;;;;0.60;0.60;;;19.40;55.90;;;;;;10414481;28;20221;-71
2022/10/15 09:52:40;;;;;;;1.50;0.67;;;19.50;55.70;;;;;;10413347;28;20711;-71
2022/10/15 09:57:51;;;;;;;0.60;0.60;;;19.60;56.00;;;;;;10412654;28;20713;-71
2022/10/15 10:03:06;;;;;;;0.50;0.50;;;19.60;55.30;;;;;;10413979;28;20229;-71
2022/10/15 10:08:17;;;;;;;0.97;0.50;;;19.80;55.70;;;;;;10410501;28;20216;-70
2022/10/15 10:13:25;;;;;;;0.50;0.50;;;19.90;55.80;;;;;;10410011;28;20886;-71
2022/10/15 10:18:30;;;;;;;0.67;0.67;;;20.00;55.60;;;;;;10411075;28;20299;-71
2022/10/15 10:23:35;;;;;;;0.57;0.57;;;20.10;55.20;;;;;;10411939;28;20272;-71
2022/10/15 10:28:46;;;;;;;1.33;0.70;;;20.20;55.40;;;;;;10411375;28;20233;-70
2022/10/15 10:33:51;;;;;;;1.27;0.40;;;20.30;54.40;;;;;;10409487;28;20263;-70
2022/10/15 10:39:02;;;;;;;0.60;0.60;;;20.50;53.90;;;;;;10412072;28;20291;-74
2022/10/15 10:44:20;;;;;;;0.50;0.50;;;20.50;53.30;;;;;;10414674;28;20244;-73
2022/10/15 10:49:31;;;;;;;0.70;0.60;;;20.60;53.10;;;;;;10419215;28;20241;-73
2022/10/15 10:54:35;;;;;;;0.57;0.50;;;20.60;53.00;;;;;;10417640;28;20640;-74
2022/10/15 10:59:48;;;;;;;0.43;0.43;;;20.70;53.50;;;;;;10422206;28;20902;-74
2022/10/15 11:04:51;;;;;;;0.50;0.50;;;20.70;51.60;;;;;;10421958;28;20233;-74
2022/10/15 11:10:01;;;;;;;0.67;0.60;;;20.70;52.00;;;;;;10423081;28;20244;-74
2022/10/15 11:15:20;;;;;;;1.60;1.20;;;20.80;51.40;;;;;;10426281;28;20275;-74
2022/10/15 11:20:31;;;;;;;1.17;1.07;;;20.70;51.20;;;;;;10424997;28;20240;-74
2022/10/15 11:26:03;;;;;;;0.70;0.70;;;20.80;51.40;;;;;;10426208;28;20768;-74
2022/10/15 11:31:16;;;;;;;0.93;0.60;;;20.70;51.50;;;;;;10427314;28;20225;-74
2022/10/15 11:36:40;;;;;;;0.70;0.70;;;20.70;51.90;;;;;;10432250;28;20312;-74
2022/10/15 11:41:50;;;;;;;1.57;0.50;;;20.70;51.50;;;;;;10428199;28;20221;-78
2022/10/15 11:47:06;;;;;;;0.60;0.60;;;20.80;51.70;;;;;;10432564;28;20256;-79
2022/10/15 11:52:29;;;;;;;0.50;0.50;;;20.90;51.60;;;;;;10430647;28;20216;-78
2022/10/15 11:57:34;;;;;;;0.50;0.50;;;21.00;51.20;;;;;;10433969;28;20252;-77
2022/10/15 12:02:39;;;;;;;2.00;0.80;;;21.00;51.00;;;;;;10434006;28;20228;-75
2022/10/15 12:07:44;;;;;;;0.60;0.60;;;21.00;50.90;;;;;;10450859;28;20808;-77
2022/10/15 12:12:54;;;;;;;0.50;0.50;;;20.90;50.80;;;;;;10446880;28;20240;-76
2022/10/15 12:18:04;;;;;;;1.13;0.60;;;20.90;50.90;;;;;;10448117;28;20229;-76
2022/10/15 12:23:23;;;;;;;0.70;0.70;;;20.90;51.70;;;;;;10447391;28;20232;-77
2022/10/15 12:28:30;;;;;;;2.60;0.60;;;20.90;52.00;;;;;;10448151;28;20741;-77
2022/10/15 12:33:38;;;;;;;1.50;0.80;;;21.00;52.00;;;;;;10444601;28;20233;-78
2022/10/15 12:38:43;;;;;;;0.60;0.60;;;21.10;52.30;;;;;;10409926;28;20230;-77
2022/10/15 12:43:53;;;;;;;0.70;0.70;;;21.10;52.10;;;;;;10406429;28;20230;-77
2022/10/15 12:48:58;;;;;;;0.80;0.80;;;21.20;51.40;;;;;;10405207;28;20241;-76
2022/10/15 12:54:01;;;;;;;0.83;0.83;;;21.30;51.50;;;;;;10404978;28;20605;-77
2022/10/15 12:59:04;;;;;;;1.23;0.80;;;21.40;51.70;;;;;;10441898;28;20267;-78
2022/10/15 13:04:09;;;;;;;1.17;0.90;;;21.60;51.40;;;;;;10450300;28;20263;-78
2022/10/15 13:09:26;;;;;;;1.03;0.90;;;21.60;50.70;;;;;;10449880;28;20279;-77
2022/10/15 13:14:34;;;;;;;2.80;0.83;;;21.70;50.20;;;;;;10450203;28;20773;-76
2022/10/15 13:19:46;;;;;;;1.00;0.90;;;21.80;49.20;;;;;;10449057;28;20286;-77
2022/10/15 13:24:50;;;;;;;1.00;0.90;;;21.90;49.20;;;;;;10449141;28;20699;-77
2022/10/15 13:29:54;;;;;;;0.70;0.70;;;22.00;48.90;;;;;;10422160;28;20237;-76
2022/10/15 13:35:00;;;;;;;1.03;1.00;;;22.10;49.30;;;;;;10448017;28;20236;-77
2022/10/15 13:40:05;;;;;;;2.60;1.00;;;22.20;48.20;;;;;;10443287;28;20578;-77
2022/10/15 13:45:17;;;;;;;0.70;0.70;;;22.20;48.30;;;;;;10436209;28;20311;-76
2022/10/15 13:50:25;;;;;;;0.70;0.63;;;22.20;47.50;;;;;;10442374;28;20260;-77
2022/10/15 13:55:29;;;;;;;1.53;1.03;;;22.20;48.00;;;;;;10406169;28;20224;-77
2022/10/15 14:00:35;;;;;;;2.80;1.10;;;22.20;47.60;;;;;;10405469;28;20587;-76
2022/10/15 14:05:40;;;;;;;1.40;1.30;;;22.20;47.70;;;;;;10405473;28;20283;-77
2022/10/15 14:10:43;;;;;;;1.30;1.20;;;22.20;47.20;;;;;;10412950;28;20237;-76
2022/10/15 14:15:56;;;;;;;0.93;0.90;;;22.20;48.00;;;;;;10413697;28;20233;-77
2022/10/15 14:21:02;;;;;;;1.03;1.03;;;22.20;47.10;;;;;;10443262;28;20642;-78
2022/10/15 14:26:05;;;;;;;0.77;0.77;;;22.30;47.50;;;;;;10443068;28;20229;-78
2022/10/15 14:31:08;;;;;;;1.00;0.90;;;22.40;47.30;;;;;;10428248;28;20224;-78
2022/10/15 14:36:25;;;;;;;1.03;0.80;;;22.50;47.40;;;;;;10443546;28;20690;-78
2022/10/15 14:41:31;;;;;;;1.83;1.00;;;22.60;46.20;;;;;;10416282;28;20248;-78
2022/10/15 14:46:41;;;;;;;1.23;0.80;;;22.50;46.20;;;;;;10431371;28;20228;-78
2022/10/15 14:51:51;;;;;;;3.03;0.80;;;22.60;45.70;;;;;;10454683;28;20220;-78
2022/10/15 14:56:55;;;;;;;0.77;0.70;;;22.50;45.50;;;;;;10447719;28;20772;-78
2022/10/15 15:02:00;;;;;;;1.50;0.80;;;22.40;46.50;;;;;;10455458;28;20290;-79
2022/10/15 15:07:18;;;;;;;0.70;0.70;;;22.40;45.70;;;;;;10441401;28;20228;-77
2022/10/15 15:12:24;;;;;;;2.53;0.90;;;22.40;44.80;;;;;;10447074;28;20301;-76
2022/10/15 15:17:30;;;;;;;3.40;0.90;;;22.40;45.70;;;;;;10451664;28;20225;-76
2022/10/15 15:22:36;;;;;;;0.90;0.70;;;22.50;45.40;;;;;;10447878;28;20276;-74
2022/10/15 15:27:39;;;;;;;1.43;0.80;;;22.40;44.90;;;;;;10441114;28;20237;-75
2022/10/15 15:32:42;;;;;;;1.90;0.70;;;22.40;46.10;;;;;;10449686;28;20780;-74
2022/10/15 15:37:47;;;;;;;1.30;0.70;;;22.40;45.90;;;;;;10448800;28;20295;-75
2022/10/15 15:42:50;;;;;;;0.83;0.70;;;22.40;45.50;;;;;;10448525;28;20665;-74
2022/10/15 15:47:55;;;;;;;0.70;0.70;;;22.30;45.70;;;;;;10447884;28;20252;-75
2022/10/15 15:52:59;;;;;;;2.17;0.80;;;22.30;45.60;;;;;;10448428;28;20225;-75
2022/10/15 15:58:02;;;;;;;1.30;1.20;;;22.30;45.20;;;;;;10447903;28;20240;-75
2022/10/15 16:03:07;;;;;;;3.33;1.80;;;22.20;45.50;;;;;;10448093;28;20768;-75
2022/10/15 16:08:13;;;;;;;3.97;2.40;;;22.10;45.60;;;;;;10447455;28;20259;-75
2022/10/15 16:13:16;;;;;;;3.50;3.10;;;22.10;45.40;;;;;;10446224;28;20823;-75
2022/10/15 16:18:19;;;;;;;1.90;1.70;;;22.00;46.00;;;;;;10447712;28;20236;-76
2022/10/15 16:23:24;;;;;;;2.23;2.13;;;22.00;45.80;;;;;;10447700;28;20224;-76
2022/10/15 16:28:27;;;;;;;3.13;2.90;;;21.80;45.10;;;;;;10447200;28;20233;-76
2022/10/15 16:33:30;;;;;;;2.47;2.30;;;21.80;45.40;;;;;;10447145;28;20229;-76
2022/10/15 16:38:34;;;;;;;3.10;1.63;;;21.70;45.50;;;;;;10446244;28;20236;-76
2022/10/15 16:43:38;;;;;;;2.40;1.53;;;21.60;45.20;;;;;;10422366;28;20233;-77
2022/10/15 16:48:41;;;;;;;1.90;1.70;;;21.50;45.40;;;;;;10443100;28;20278;-76
2022/10/15 16:53:46;;;;;;;2.50;1.90;;;21.40;45.40;;;;;;10423766;28;20236;-76
2022/10/15 16:58:50;;;;;;;2.43;2.10;;;21.30;45.10;;;;;;10418115;28;20283;-76
2022/10/15 17:03:54;;;;;;;1.97;1.83;;;21.30;45.50;;;;;;10436701;28;20232;-76
2022/10/15 17:08:59;;;;;;;2.07;1.77;;;21.30;45.50;;;;;;10435905;28;20241;-76
2022/10/15 17:14:05;;;;;;;1.83;1.73;;;21.20;45.10;;;;;;10442506;28;20776;-76
2022/10/15 17:19:09;;;;;;;2.97;1.80;;;21.10;45.10;;;;;;10446366;28;20626;-76
2022/10/15 17:24:16;;;;;;;2.37;2.20;;;21.00;45.30;;;;;;10408785;28;20226;-76
2022/10/15 17:29:21;;;;;;;6.93;4.93;;;20.90;45.30;;;;;;10418657;28;20228;-75
2022/10/15 17:34:26;;;;;;;4.23;3.80;;;20.80;45.60;;;;;;10443966;28;20312;-76
2022/10/15 17:39:31;;;;;;;4.57;3.70;;;20.70;45.70;;;;;;10445722;28;20599;-76
2022/10/15 17:44:34;;;;;;;4.70;4.30;;;20.70;45.50;;;;;;10411478;23;20237;-67
2022/10/15 17:49:37;;;;;;;2.80;2.60;;;20.60;45.80;;;;;;10367127;28;20226;-67
2022/10/15 17:54:42;;;;;;;2.67;2.47;;;20.60;45.80;;;;;;10379589;28;20228;-69
2022/10/15 17:59:45;;;;;;;2.90;2.70;;;20.50;45.70;;;;;;10373500;28;20241;-67
2022/10/15 18:04:53;;;;;;;3.20;3.00;;;20.50;46.00;;;;;;10376912;28;20233;-69
2022/10/15 18:10:00;;;;;;;4.80;2.57;;;20.50;46.00;;;;;;10382290;28;20638;-67
2022/10/15 18:15:03;;;;;;;5.60;2.50;;;20.40;45.90;;;;;;10384308;28;20593;-70
2022/10/15 18:20:07;;;;;;;3.20;2.90;;;20.40;46.10;;;;;;10386546;28;20230;-73
2022/10/15 18:25:11;;;;;;;5.70;5.07;;;20.40;46.00;;;;;;10387909;28;20218;-74
2022/10/15 18:30:15;;;;;;;7.97;5.17;;;20.40;46.00;;;;;;10384685;28;20221;-73
2022/10/15 18:35:19;;;;;;;12.37;10.10;;;20.30;46.00;;;;;;10382149;28;20626;-73
2022/10/15 18:40:23;;;;;;;7.77;5.63;;;20.30;46.20;;;;;;10378642;28;20238;-73
2022/10/15 18:45:27;;;;;;;6.87;5.20;;;20.20;46.20;;;;;;10379382;28;20328;-75
2022/10/15 18:50:30;;;;;;;4.37;3.97;;;20.20;47.00;;;;;;10383033;28;20227;-74
2022/10/15 18:55:35;;;;;;;4.60;4.13;;;20.20;46.20;;;;;;10362594;28;20237;-72
2022/10/15 19:00:38;;;;;;;4.77;3.30;;;20.10;46.30;;;;;;10364306;28;20226;-69
2022/10/15 19:05:42;;;;;;;3.13;2.93;;;20.10;46.20;;;;;;10360384;28;21113;-68
2022/10/15 19:10:46;;;;;;;3.97;3.20;;;20.10;46.40;;;;;;10360073;28;20230;-72
2022/10/15 19:15:49;;;;;;;3.27;2.97;;;20.00;46.40;;;;;;10362583;28;20260;-73
2022/10/15 19:20:53;;;;;;;4.40;2.70;;;20.00;46.40;;;;;;10358056;28;20727;-73
2022/10/15 19:25:58;;;;;;;3.40;2.83;;;20.00;46.50;;;;;;10357634;28;20232;-73
2022/10/15 19:31:03;;;;;;;4.20;2.27;;;20.00;46.60;;;;;;10360723;28;20617;-73
2022/10/15 19:36:06;;;;;;;3.37;2.30;;;19.90;46.50;;;;;;10358298;28;20228;-73
2022/10/15 19:41:11;;;;;;;2.70;2.50;;;19.90;46.60;;;;;;10362755;28;20214;-72
2022/10/15 19:46:14;;;;;;;3.53;2.30;;;19.80;46.60;;;;;;10356842;28;20317;-71
2022/10/15 19:51:17;;;;;;;2.73;2.53;;;19.80;46.70;;;;;;10356654;28;20232;-69
2022/10/15 19:56:22;;;;;;;2.27;2.10;;;19.70;46.80;;;;;;10361373;28;20245;-71
2022/10/15 20:01:27;;;;;;;2.30;2.03;;;19.70;47.00;;;;;;10359254;28;20241;-68
2022/10/15 20:06:30;;;;;;;3.30;2.60;;;19.70;47.70;;;;;;10355322;28;20221;-69
2022/10/15 20:11:35;;;;;;;3.30;2.90;;;19.70;46.90;;;;;;10364693;28;20237;-68
2022/10/15 20:16:38;;;;;;;3.00;2.80;;;19.70;46.80;;;;;;10369181;28;20238;-68
2022/10/15 20:21:42;;;;;;;2.57;2.37;;;19.70;46.80;;;;;;10366251;28;20229;-68
2022/10/15 20:26:46;;;;;;;2.50;2.30;;;19.60;46.70;;;;;;10364051;28;20284;-68
2022/10/15 20:31:50;;;;;;;2.13;1.93;;;19.60;46.90;;;;;;10364407;28;20234;-68
2022/10/15 20:36:53;;;;;;;2.30;2.10;;;19.50;47.00;;;;;;10365393;28;20226;-68
2022/10/15 20:41:58;;;;;;;2.30;1.97;;;19.40;47.10;;;;;;10366755;28;20241;-69
2022/10/15 20:47:05;;;;;;;4.17;2.20;;;19.40;47.30;;;;;;10367059;28;20276;-69
2022/10/15 20:52:08;;;;;;;3.40;2.07;;;19.40;47.40;;;;;;10368581;28;20228;-71
2022/10/15 20:57:13;;;;;;;2.47;2.27;;;19.40;47.50;;;;;;10366448;28;20701;-71
2022/10/15 21:02:16;;;;;;;2.90;1.80;;;19.40;47.80;;;;;;10361797;28;20221;-71
2022/10/15 21:07:19;;;;;;;2.60;2.00;;;19.40;48.00;;;;;;10362027;28;20275;-71
2022/10/15 21:12:25;;;;;;;3.03;2.47;;;19.40;47.80;;;;;;10363720;28;20234;-71
2022/10/15 21:17:29;;;;;;;3.23;2.93;;;19.40;48.20;;;;;;10365083;28;20330;-71
2022/10/15 21:22:32;;;;;;;3.20;2.90;;;19.40;47.90;;;;;;10366467;28;20242;-70
2022/10/15 21:27:37;;;;;;;3.13;2.40;;;19.40;47.80;;;;;;10372385;28;20283;-71
2022/10/15 21:32:40;;;;;;;2.40;2.20;;;19.30;47.80;;;;;;10371953;28;20226;-71
2022/10/15 21:37:43;;;;;;;2.80;2.17;;;19.30;47.80;;;;;;10369931;28;20575;-71
2022/10/15 21:42:47;;;;;;;4.13;2.40;;;19.30;47.70;;;;;;10370307;28;20284;-71
2022/10/15 21:47:51;;;;;;;2.17;1.97;;;19.30;47.70;;;;;;10374142;28;20239;-71
2022/10/15 21:52:54;;;;;;;2.97;2.20;;;19.30;47.70;;;;;;10378323;28;20762;-71
2022/10/15 21:57:58;;;;;;;2.00;1.90;;;19.30;47.80;;;;;;10380506;28;20332;-71
2022/10/15 22:03:01;;;;;;;3.50;1.67;;;19.30;47.50;;;;;;10380979;28;20601;-71
2022/10/15 22:08:05;;;;;;;3.23;1.90;;;19.30;47.30;;;;;;10378364;28;21180;-71
2022/10/15 22:13:09;;;;;;;2.43;1.90;;;19.30;47.30;;;;;;10378423;28;20243;-71
2022/10/15 22:18:13;;;;;;;2.07;1.70;;;19.20;47.30;;;;;;10377063;28;20222;-71
2022/10/15 22:23:16;;;;;;;3.97;1.87;;;19.20;47.30;;;;;;10380885;28;20234;-71
2022/10/15 22:28:20;;;;;;;3.57;1.90;;;19.20;47.70;;;;;;10370624;28;20455;-71
2022/10/15 22:33:23;;;;;;;1.70;1.60;;;19.20;48.00;;;;;;10380877;28;20230;-71
2022/10/15 22:38:26;;;;;;;1.97;1.73;;;19.20;47.80;;;;;;10377858;28;20605;-71
2022/10/15 22:43:32;;;;;;;1.80;1.70;;;19.20;47.60;;;;;;10377142;28;20273;-71
2022/10/15 22:48:37;;;;;;;4.07;2.00;;;19.30;47.70;;;;;;10378169;28;20329;-71
2022/10/15 22:53:41;;;;;;;3.10;2.10;;;19.30;47.40;;;;;;10378457;28;20289;-71
2022/10/15 22:58:45;;;;;;;1.90;1.70;;;19.20;47.40;;;;;;10385084;28;20231;-71
2022/10/15 23:03:50;;;;;;;1.73;1.63;;;19.20;47.60;;;;;;10387699;28;20624;-71
2022/10/15 23:08:54;;;;;;;1.93;1.50;;;19.20;47.60;;;;;;10383664;28;20752;-72
2022/10/15 23:14:01;;;;;;;1.80;1.60;;;19.20;47.80;;;;;;10383332;28;20237;-71
2022/10/15 23:19:06;;;;;;;2.20;1.80;;;19.20;47.60;;;;;;10385669;28;20267;-71
2022/10/15 23:24:09;;;;;;;1.80;1.70;;;19.20;47.60;;;;;;10386333;28;20229;-71
2022/10/15 23:29:17;;;;;;;1.90;1.77;;;19.20;47.50;;;;;;10386436;28;20731;-71
2022/10/15 23:34:22;;;;;;;2.47;1.80;;;19.20;47.70;;;;;;10379888;28;20276;-71
2022/10/15 23:39:27;;;;;;;3.03;2.03;;;19.20;47.50;;;;;;10383269;28;20234;-71
2022/10/15 23:44:31;;;;;;;4.40;2.00;;;19.20;47.60;;;;;;10385333;28;20230;-71
2022/10/15 23:49:34;;;;;;;2.60;1.60;;;19.20;47.40;;;;;;10375699;28;20224;-71
2022/10/15 23:54:37;;;;;;;2.50;2.30;;;19.20;47.20;;;;;;10387397;28;20226;-70
2022/10/15 23:59:42;;;;;;;2.93;2.20;;;19.10;46.90;;;;;;10384380;28;20573;-71
